sensor_id;sensor_type;location;lat;lon;timestamp;pressure;altitude;pressure_sealevel;temperature;humidity
77739;BME280;66904;59.926;30.404;2023-04-29T00:02:33;101308.31;;;25.98;28.25
77739;BME280;66904;59.926;30.404;2023-04-29T00:07:34;101314.19;;;26.01;28.18
77739;BME280;66904;59.926;30.404;2023-04-29T00:12:35;101305.22;;;26.01;28.09
77739;BME280;66904;59.926;30.404;2023-04-29T00:17:36;101307.47;;;25.97;28.42
77739;BME280;66904;59.926;30.404;2023-04-29T00:22:37;101315.00;;;26.02;28.35
77739;BME280;66904;59.926;30.404;2023-04-29T00:27:37;101308.31;;;25.98;28.04
77739;BME280;66904;59.926;30.404;2023-04-29T00:32:38;101310.63;;;26.01;28.18
77739;BME280;66904;59.926;30.404;2023-04-29T00:37:39;101312.50;;;26.00;28.23
77739;BME280;66904;59.926;30.404;2023-04-29T00:42:40;101316.91;;;26.01;28.16
77739;BME280;66904;59.926;30.404;2023-04-29T00:47:41;101304.78;;;25.97;28.34
77739;BME280;66904;59.926;30.404;2023-04-29T00:52:42;101306.44;;;25.98;28.00
77739;BME280;66904;59.926;30.404;2023-04-29T00:57:42;101308.94;;;26.00;28.20
77739;BME280;66904;59.926;30.404;2023-04-29T01:02:44;101308.94;;;26.00;28.16
77739;BME280;66904;59.926;30.404;2023-04-29T01:13:36;101301.44;;;26.02;28.01
77739;BME280;66904;59.926;30.404;2023-04-29T01:18:43;101307.47;;;25.97;27.75
77739;BME280;66904;59.926;30.404;2023-04-29T01:23:45;101321.88;;;25.98;28.15
77739;BME280;66904;59.926;30.404;2023-04-29T01:29:07;101313.34;;;26.01;28.18
77739;BME280;66904;59.926;30.404;2023-04-29T01:34:59;101294.72;;;25.91;27.83
77739;BME280;66904;59.926;30.404;2023-04-29T01:45:14;101312.47;;;25.94;27.82
77739;BME280;66904;59.926;30.404;2023-04-29T01:50:16;101302.88;;;25.91;27.83
77739;BME280;66904;59.926;30.404;2023-04-29T01:55:17;101309.31;;;25.90;27.93
77739;BME280;66904;59.926;30.404;2023-04-29T02:00:17;101310.78;;;25.93;28.15
77739;BME280;66904;59.926;30.404;2023-04-29T02:05:18;101313.72;;;25.91;28.05
77739;BME280;66904;59.926;30.404;2023-04-29T02:10:18;101307.44;;;25.91;27.78
77739;BME280;66904;59.926;30.404;2023-04-29T02:15:19;101305.75;;;25.90;27.76
77739;BME280;66904;59.926;30.404;2023-04-29T02:20:20;101307.44;;;25.91;27.87
77739;BME280;66904;59.926;30.404;2023-04-29T02:25:21;101298.66;;;25.89;27.91
77739;BME280;66904;59.926;30.404;2023-04-29T02:30:21;101293.88;;;25.91;27.73
77739;BME280;66904;59.926;30.404;2023-04-29T02:35:21;101284.69;;;25.85;27.83
77739;BME280;66904;59.926;30.404;2023-04-29T02:40:22;101307.44;;;25.91;28.16
77739;BME280;66904;59.926;30.404;2023-04-29T02:45:24;101312.03;;;25.90;27.56
77739;BME280;66904;59.926;30.404;2023-04-29T02:50:26;101305.97;;;25.88;27.59
77739;BME280;66904;59.926;30.404;2023-04-29T02:55:26;101305.31;;;25.86;27.77
77739;BME280;66904;59.926;30.404;2023-04-29T03:00:27;101304.06;;;25.89;27.91
77739;BME280;66904;59.926;30.404;2023-04-29T03:05:30;101314.91;;;25.89;27.87
77739;BME280;66904;59.926;30.404;2023-04-29T03:10:31;101316.59;;;25.90;27.68
77739;BME280;66904;59.926;30.404;2023-04-29T03:15:31;101313.06;;;25.89;27.69
77739;BME280;66904;59.926;30.404;2023-04-29T03:20:32;101289.22;;;25.78;27.54
77739;BME280;66904;59.926;30.404;2023-04-29T03:25:33;101312.16;;;25.82;27.54
77739;BME280;66904;59.926;30.404;2023-04-29T03:30:33;101317.16;;;25.79;27.96
77739;BME280;66904;59.926;30.404;2023-04-29T03:35:34;101312.34;;;25.74;28.05
77739;BME280;66904;59.926;30.404;2023-04-29T03:40:34;101319.41;;;25.68;27.97
77739;BME280;66904;59.926;30.404;2023-04-29T03:45:35;101327.09;;;25.65;27.93
77739;BME280;66904;59.926;30.404;2023-04-29T03:50:36;101320.56;;;25.59;28.11
77739;BME280;66904;59.926;30.404;2023-04-29T03:55:37;101327.84;;;25.59;27.48
77739;BME280;66904;59.926;30.404;2023-04-29T04:00:37;101330.09;;;25.55;27.94
77739;BME280;66904;59.926;30.404;2023-04-29T04:05:38;101302.69;;;25.44;27.76
77739;BME280;66904;59.926;30.404;2023-04-29T04:10:38;101298.31;;;25.43;27.82
77739;BME280;66904;59.926;30.404;2023-04-29T04:15:39;101303.16;;;25.47;27.58
77739;BME280;66904;59.926;30.404;2023-04-29T04:20:39;101312.28;;;25.46;27.85
77739;BME280;66904;59.926;30.404;2023-04-29T04:25:47;101310.81;;;25.44;27.97
77739;BME280;66904;59.926;30.404;2023-04-29T04:30:48;101304.13;;;25.40;27.79
77739;BME280;66904;59.926;30.404;2023-04-29T04:35:49;101311.41;;;25.39;27.63
77739;BME280;66904;59.926;30.404;2023-04-29T04:40:49;101318.72;;;25.39;27.87
77739;BME280;66904;59.926;30.404;2023-04-29T04:45:50;101313.66;;;25.36;27.76
77739;BME280;66904;59.926;30.404;2023-04-29T04:50:50;101316.75;;;25.33;27.27
77739;BME280;66904;59.926;30.404;2023-04-29T04:55:51;101322.00;;;25.34;27.84
77739;BME280;66904;59.926;30.404;2023-04-29T05:00:51;101314.72;;;25.35;27.84
77739;BME280;66904;59.926;30.404;2023-04-29T05:05:53;101308.47;;;25.34;27.77
77739;BME280;66904;59.926;30.404;2023-04-29T05:10:54;101300.44;;;25.26;27.52
77739;BME280;66904;59.926;30.404;2023-04-29T05:15:54;101310.31;;;25.34;27.84
77739;BME280;66904;59.926;30.404;2023-04-29T05:20:55;101310.13;;;25.35;27.75
77739;BME280;66904;59.926;30.404;2023-04-29T05:25:55;101316.59;;;25.34;27.89
77739;BME280;66904;59.926;30.404;2023-04-29T05:30:56;101309.88;;;25.30;27.62
77739;BME280;66904;59.926;30.404;2023-04-29T05:35:57;101323.88;;;25.34;27.71
77739;BME280;66904;59.926;30.404;2023-04-29T05:40:57;101298.34;;;25.22;27.42
77739;BME280;66904;59.926;30.404;2023-04-29T05:45:58;101313.22;;;25.32;27.29
77739;BME280;66904;59.926;30.404;2023-04-29T05:50:58;101312.41;;;25.32;27.56
77739;BME280;66904;59.926;30.404;2023-04-29T05:55:59;101308.84;;;25.31;27.71
77739;BME280;66904;59.926;30.404;2023-04-29T06:00:59;101319.75;;;25.38;27.36
77739;BME280;66904;59.926;30.404;2023-04-29T06:06:00;101323.28;;;25.38;27.57
77739;BME280;66904;59.926;30.404;2023-04-29T06:11:01;101304.66;;;25.29;27.63
77739;BME280;66904;59.926;30.404;2023-04-29T06:16:04;101313.88;;;25.34;27.60
77739;BME280;66904;59.926;30.404;2023-04-29T06:21:05;101304.91;;;25.34;27.52
77739;BME280;66904;59.926;30.404;2023-04-29T06:26:05;101310.63;;;25.45;27.13
77739;BME280;66904;59.926;30.404;2023-04-29T06:31:06;101316.69;;;25.47;27.67
77739;BME280;66904;59.926;30.404;2023-04-29T06:36:07;101313.44;;;25.52;27.66
77739;BME280;66904;59.926;30.404;2023-04-29T06:41:08;101324.31;;;25.58;27.77
77739;BME280;66904;59.926;30.404;2023-04-29T06:46:09;101329.34;;;25.61;27.64
77739;BME280;66904;59.926;30.404;2023-04-29T06:51:10;101336.03;;;25.65;27.60
77739;BME280;66904;59.926;30.404;2023-04-29T06:56:11;101341.91;;;25.69;27.76
77739;BME280;66904;59.926;30.404;2023-04-29T07:01:11;101343.19;;;25.73;27.83
77739;BME280;66904;59.926;30.404;2023-04-29T07:06:12;101338.66;;;25.80;27.85
77739;BME280;66904;59.926;30.404;2023-04-29T07:11:12;101341.19;;;25.82;28.48
77739;BME280;66904;59.926;30.404;2023-04-29T07:16:17;101338.28;;;25.90;28.07
77739;BME280;66904;59.926;30.404;2023-04-29T07:21:19;101346.25;;;25.91;28.30
77739;BME280;66904;59.926;30.404;2023-04-29T07:26:19;101346.28;;;25.98;28.29
77739;BME280;66904;59.926;30.404;2023-04-29T07:31:21;101346.06;;;25.99;28.43
77739;BME280;66904;59.926;30.404;2023-04-29T07:36:21;101333.53;;;25.92;28.32
77739;BME280;66904;59.926;30.404;2023-04-29T07:41:22;101355.69;;;26.02;28.53
77739;BME280;66904;59.926;30.404;2023-04-29T07:46:23;101350.66;;;25.99;28.16
77739;BME280;66904;59.926;30.404;2023-04-29T07:51:23;101351.91;;;25.96;28.21
77739;BME280;66904;59.926;30.404;2023-04-29T07:56:24;101363.97;;;25.94;28.55
77739;BME280;66904;59.926;30.404;2023-04-29T08:01:25;101357.28;;;25.90;27.84
77739;BME280;66904;59.926;30.404;2023-04-29T08:06:26;101364.56;;;25.89;27.71
77739;BME280;66904;59.926;30.404;2023-04-29T08:11:26;101365.81;;;25.87;27.89
77739;BME280;66904;59.926;30.404;2023-04-29T08:16:27;101379.56;;;25.85;27.75
77739;BME280;66904;59.926;30.404;2023-04-29T08:21:27;101394.16;;;25.84;28.03
77739;BME280;66904;59.926;30.404;2023-04-29T08:26:28;101407.06;;;25.82;28.02
77739;BME280;66904;59.926;30.404;2023-04-29T08:31:29;101426.88;;;25.83;27.83
77739;BME280;66904;59.926;30.404;2023-04-29T08:36:30;101427.97;;;25.88;27.89
77739;BME280;66904;59.926;30.404;2023-04-29T08:41:31;101438.44;;;25.91;28.36
77739;BME280;66904;59.926;30.404;2023-04-29T08:46:32;101423.97;;;25.84;28.52
77739;BME280;66904;59.926;30.404;2023-04-29T08:51:33;101440.47;;;25.89;27.99
77739;BME280;66904;59.926;30.404;2023-04-29T08:56:34;101441.53;;;25.88;28.34
77739;BME280;66904;59.926;30.404;2023-04-29T09:01:37;101432.94;;;25.85;28.02
77739;BME280;66904;59.926;30.404;2023-04-29T09:06:39;101442.75;;;25.86;28.71
77739;BME280;66904;59.926;30.404;2023-04-29T09:11:40;101437.31;;;25.86;28.36
77739;BME280;66904;59.926;30.404;2023-04-29T09:16:40;101437.13;;;25.87;28.22
77739;BME280;66904;59.926;30.404;2023-04-29T09:21:53;101437.09;;;25.81;28.00
77739;BME280;66904;59.926;30.404;2023-04-29T09:26:56;101448.09;;;25.79;28.44
77739;BME280;66904;59.926;30.404;2023-04-29T09:31:57;101451.47;;;25.81;28.53
77739;BME280;66904;59.926;30.404;2023-04-29T09:36:58;101460.53;;;25.88;28.17
77739;BME280;66904;59.926;30.404;2023-04-29T09:41:59;101460.13;;;25.91;27.93
77739;BME280;66904;59.926;30.404;2023-04-29T09:47:04;101470.56;;;25.94;28.15
77739;BME280;66904;59.926;30.404;2023-04-29T09:57:09;101473.06;;;25.96;28.22
77739;BME280;66904;59.926;30.404;2023-04-29T10:02:14;101473.53;;;25.99;28.25
77739;BME280;66904;59.926;30.404;2023-04-29T10:07:17;101495.50;;;26.04;28.17
77739;BME280;66904;59.926;30.404;2023-04-29T10:12:19;101499.66;;;26.07;28.25
77739;BME280;66904;59.926;30.404;2023-04-29T10:17:35;101495.53;;;26.11;28.31
77739;BME280;66904;59.926;30.404;2023-04-29T10:22:45;101510.22;;;26.16;28.04
77739;BME280;66904;59.926;30.404;2023-04-29T10:27:47;101508.78;;;26.20;28.14
77739;BME280;66904;59.926;30.404;2023-04-29T10:32:49;101520.09;;;26.24;28.40
77739;BME280;66904;59.926;30.404;2023-04-29T10:37:50;101509.03;;;26.26;28.68
77739;BME280;66904;59.926;30.404;2023-04-29T10:42:53;101510.13;;;26.31;28.43
77739;BME280;66904;59.926;30.404;2023-04-29T10:53:06;101507.91;;;26.41;29.32
77739;BME280;66904;59.926;30.404;2023-04-29T10:58:44;101513.84;;;26.51;29.13
77739;BME280;66904;59.926;30.404;2023-04-29T11:09:12;101522.34;;;26.48;28.80
77739;BME280;66904;59.926;30.404;2023-04-29T11:14:14;101525.66;;;26.44;29.06
77739;BME280;66904;59.926;30.404;2023-04-29T11:19:16;101520.63;;;26.41;28.76
77739;BME280;66904;59.926;30.404;2023-04-29T11:24:17;101526.91;;;26.41;29.07
77739;BME280;66904;59.926;30.404;2023-04-29T11:29:18;101522.91;;;26.37;28.68
77739;BME280;66904;59.926;30.404;2023-04-29T11:34:24;101525.63;;;26.37;28.57
77739;BME280;66904;59.926;30.404;2023-04-29T11:39:26;101530.38;;;26.35;28.43
77739;BME280;66904;59.926;30.404;2023-04-29T11:44:27;101534.34;;;26.33;28.48
77739;BME280;66904;59.926;30.404;2023-04-29T11:49:31;101537.91;;;26.33;27.93
77739;BME280;66904;59.926;30.404;2023-04-29T11:54:33;101540.78;;;26.32;28.01
77739;BME280;66904;59.926;30.404;2023-04-29T11:59:34;101541.84;;;26.31;27.96
77739;BME280;66904;59.926;30.404;2023-04-29T12:04:44;101538.47;;;26.29;27.69
77739;BME280;66904;59.926;30.404;2023-04-29T12:09:45;101547.22;;;26.24;27.96
77739;BME280;66904;59.926;30.404;2023-04-29T12:14:46;101549.28;;;26.22;28.16
77739;BME280;66904;59.926;30.404;2023-04-29T12:19:47;101547.63;;;26.21;28.66
77739;BME280;66904;59.926;30.404;2023-04-29T12:24:51;101550.13;;;26.23;28.42
77739;BME280;66904;59.926;30.404;2023-04-29T12:29:53;101556.22;;;26.25;28.73
77739;BME280;66904;59.926;30.404;2023-04-29T12:34:54;101548.25;;;26.23;29.03
77739;BME280;66904;59.926;30.404;2023-04-29T12:39:54;101549.94;;;26.24;29.24
77739;BME280;66904;59.926;30.404;2023-04-29T12:44:55;101562.03;;;26.22;28.69
77739;BME280;66904;59.926;30.404;2023-04-29T12:49:56;101559.66;;;26.18;28.48
77739;BME280;66904;59.926;30.404;2023-04-29T12:54:56;101556.31;;;26.16;29.07
77739;BME280;66904;59.926;30.404;2023-04-29T12:59:57;101556.69;;;26.13;28.75
77739;BME280;66904;59.926;30.404;2023-04-29T13:04:57;101552.50;;;26.11;28.98
77739;BME280;66904;59.926;30.404;2023-04-29T13:09:58;101560.63;;;26.11;28.75
77739;BME280;66904;59.926;30.404;2023-04-29T13:14:58;101559.53;;;26.05;28.44
77739;BME280;66904;59.926;30.404;2023-04-29T13:19:59;101557.88;;;26.04;28.63
77739;BME280;66904;59.926;30.404;2023-04-29T13:24:59;101543.13;;;25.92;28.77
77739;BME280;66904;59.926;30.404;2023-04-29T13:30:00;101551.97;;;26.01;28.29
77739;BME280;66904;59.926;30.404;2023-04-29T13:35:01;101549.38;;;25.93;28.13
77739;BME280;66904;59.926;30.404;2023-04-29T13:40:03;101560.97;;;26.01;28.16
77739;BME280;66904;59.926;30.404;2023-04-29T13:45:06;101565.72;;;25.99;28.17
77739;BME280;66904;59.926;30.404;2023-04-29T13:50:08;101548.31;;;25.87;28.28
77739;BME280;66904;59.926;30.404;2023-04-29T13:55:08;101574.53;;;26.01;28.21
77739;BME280;66904;59.926;30.404;2023-04-29T14:00:09;101577.88;;;26.03;28.47
77739;BME280;66904;59.926;30.404;2023-04-29T14:05:10;101575.78;;;26.05;28.39
77739;BME280;66904;59.926;30.404;2023-04-29T14:10:11;101570.56;;;26.04;28.37
77739;BME280;66904;59.926;30.404;2023-04-29T14:15:11;101577.88;;;26.03;28.22
77739;BME280;66904;59.926;30.404;2023-04-29T14:20:12;101579.75;;;26.03;28.23
77739;BME280;66904;59.926;30.404;2023-04-29T14:25:13;101577.03;;;26.03;27.89
77739;BME280;66904;59.926;30.404;2023-04-29T14:30:13;101580.97;;;26.00;28.24
77739;BME280;66904;59.926;30.404;2023-04-29T14:35:14;101583.06;;;25.98;28.00
77739;BME280;66904;59.926;30.404;2023-04-29T14:40:15;101583.41;;;25.95;27.97
77739;BME280;66904;59.926;30.404;2023-04-29T14:45:15;101580.28;;;25.92;28.28
77739;BME280;66904;59.926;30.404;2023-04-29T14:50:16;101585.03;;;25.90;28.32
77739;BME280;66904;59.926;30.404;2023-04-29T14:55:17;101585.25;;;25.88;28.25
77739;BME280;66904;59.926;30.404;2023-04-29T15:00:18;101591.47;;;25.89;28.27
77739;BME280;66904;59.926;30.404;2023-04-29T15:05:18;101591.47;;;25.89;27.94
77739;BME280;66904;59.926;30.404;2023-04-29T15:10:19;101573.47;;;25.81;27.73
77739;BME280;66904;59.926;30.404;2023-04-29T15:15:20;101590.66;;;25.88;28.10
77739;BME280;66904;59.926;30.404;2023-04-29T15:20:21;101596.53;;;25.92;28.16
77739;BME280;66904;59.926;30.404;2023-04-29T15:25:22;101586.91;;;25.89;27.77
77739;BME280;66904;59.926;30.404;2023-04-29T15:30:22;101588.75;;;25.89;27.48
77739;BME280;66904;59.926;30.404;2023-04-29T15:35:23;101594.41;;;25.87;27.43
77739;BME280;66904;59.926;30.404;2023-04-29T15:40:23;101598.50;;;25.83;27.77
77739;BME280;66904;59.926;30.404;2023-04-29T15:45:25;101588.44;;;25.77;27.85
77739;BME280;66904;59.926;30.404;2023-04-29T15:50:25;101589.28;;;25.78;27.62
77739;BME280;66904;59.926;30.404;2023-04-29T15:55:26;101596.19;;;25.80;27.89
77739;BME280;66904;59.926;30.404;2023-04-29T16:00:26;101601.22;;;25.83;27.94
77739;BME280;66904;59.926;30.404;2023-04-29T16:05:27;101597.66;;;25.83;27.63
77739;BME280;66904;59.926;30.404;2023-04-29T16:10:28;101596.81;;;25.82;28.08
77739;BME280;66904;59.926;30.404;2023-04-29T16:15:29;101592.47;;;25.81;28.04
77739;BME280;66904;59.926;30.404;2023-04-29T16:20:32;101596.38;;;25.79;28.01
77739;BME280;66904;59.926;30.404;2023-04-29T16:25:32;101601.53;;;25.74;27.76
77739;BME280;66904;59.926;30.404;2023-04-29T16:30:33;101603.78;;;25.70;27.85
77739;BME280;66904;59.926;30.404;2023-04-29T16:35:35;101619.78;;;25.65;27.59
77739;BME280;66904;59.926;30.404;2023-04-29T16:40:36;101612.06;;;25.62;27.51
77739;BME280;66904;59.926;30.404;2023-04-29T16:45:36;101625.41;;;25.63;27.95
77739;BME280;66904;59.926;30.404;2023-04-29T16:50:37;101617.09;;;25.65;27.45
77739;BME280;66904;59.926;30.404;2023-04-29T16:55:38;101628.94;;;25.64;27.69
77739;BME280;66904;59.926;30.404;2023-04-29T17:00:38;101615.41;;;25.64;27.58
77739;BME280;66904;59.926;30.404;2023-04-29T17:05:39;101619.59;;;25.66;27.59
77739;BME280;66904;59.926;30.404;2023-04-29T17:10:40;101620.63;;;25.65;28.20
77739;BME280;66904;59.926;30.404;2023-04-29T17:15:40;101632.13;;;25.67;28.20
77739;BME280;66904;59.926;30.404;2023-04-29T17:20:41;101632.31;;;25.66;27.87
77739;BME280;66904;59.926;30.404;2023-04-29T17:25:42;101623.53;;;25.64;27.99
77739;BME280;66904;59.926;30.404;2023-04-29T17:30:43;101626.63;;;25.61;27.61
77739;BME280;66904;59.926;30.404;2023-04-29T17:35:43;101616.16;;;25.58;27.59
77739;BME280;66904;59.926;30.404;2023-04-29T17:40:45;101631.75;;;25.56;27.67
77739;BME280;66904;59.926;30.404;2023-04-29T17:45:46;101630.28;;;25.53;27.58
77739;BME280;66904;59.926;30.404;2023-04-29T17:50:46;101628.09;;;25.49;27.64
77739;BME280;66904;59.926;30.404;2023-04-29T17:55:47;101637.06;;;25.49;27.69
77739;BME280;66904;59.926;30.404;2023-04-29T18:00:47;101636.91;;;25.51;27.75
77739;BME280;66904;59.926;30.404;2023-04-29T18:05:48;101640.25;;;25.53;27.14
77739;BME280;66904;59.926;30.404;2023-04-29T18:10:49;101644.47;;;25.55;27.47
77739;BME280;66904;59.926;30.404;2023-04-29T18:15:49;101640.34;;;25.59;27.46
77739;BME280;66904;59.926;30.404;2023-04-29T18:20:50;101638.47;;;25.60;27.60
77739;BME280;66904;59.926;30.404;2023-04-29T18:25:51;101638.88;;;25.57;27.45
77739;BME280;66904;59.926;30.404;2023-04-29T18:30:51;101643.66;;;25.55;27.62
77739;BME280;66904;59.926;30.404;2023-04-29T18:35:52;101642.34;;;25.51;27.25
77739;BME280;66904;59.926;30.404;2023-04-29T18:40:53;101652.47;;;25.49;27.53
77739;BME280;66904;59.926;30.404;2023-04-29T18:45:55;101652.47;;;25.49;27.43
77739;BME280;66904;59.926;30.404;2023-04-29T18:50:56;101645.78;;;25.45;27.35
77739;BME280;66904;59.926;30.404;2023-04-29T18:56:03;101644.53;;;25.47;27.16
77739;BME280;66904;59.926;30.404;2023-04-29T19:01:03;101642.69;;;25.48;27.59
77739;BME280;66904;59.926;30.404;2023-04-29T19:06:05;101641.50;;;25.50;27.49
77739;BME280;66904;59.926;30.404;2023-04-29T19:11:05;101646.75;;;25.52;27.14
77739;BME280;66904;59.926;30.404;2023-04-29T19:16:06;101638.28;;;25.47;27.42
77739;BME280;66904;59.926;30.404;2023-04-29T19:21:06;101641.09;;;25.53;27.48
77739;BME280;66904;59.926;30.404;2023-04-29T19:26:07;101641.56;;;25.57;27.08
77739;BME280;66904;59.926;30.404;2023-04-29T19:31:08;101638.88;;;25.57;27.52
77739;BME280;66904;59.926;30.404;2023-04-29T19:36:10;101641.41;;;25.58;27.14
77739;BME280;66904;59.926;30.404;2023-04-29T19:41:13;101633.06;;;25.60;27.71
77739;BME280;66904;59.926;30.404;2023-04-29T19:46:13;101630.34;;;25.60;27.31
77739;BME280;66904;59.926;30.404;2023-04-29T19:51:14;101624.56;;;25.63;27.79
77739;BME280;66904;59.926;30.404;2023-04-29T19:56:15;101632.75;;;25.69;27.25
77739;BME280;66904;59.926;30.404;2023-04-29T20:01:15;101625.94;;;25.74;27.51
77739;BME280;66904;59.926;30.404;2023-04-29T20:06:16;101622.66;;;25.78;27.66
77739;BME280;66904;59.926;30.404;2023-04-29T20:11:16;101613.31;;;25.81;27.63
77739;BME280;66904;59.926;30.404;2023-04-29T20:16:17;101615.34;;;25.79;27.74
77739;BME280;66904;59.926;30.404;2023-04-29T20:21:18;101613.09;;;25.82;27.73
77739;BME280;66904;59.926;30.404;2023-04-29T20:26:18;101598.72;;;25.82;27.70
77739;BME280;66904;59.926;30.404;2023-04-29T20:31:19;101603.16;;;25.89;27.75
77739;BME280;66904;59.926;30.404;2023-04-29T20:36:19;101586.72;;;25.91;28.01
77739;BME280;66904;59.926;30.404;2023-04-29T20:41:20;101592.38;;;25.96;27.73
77739;BME280;66904;59.926;30.404;2023-04-29T20:46:21;101576.56;;;25.99;28.13
77739;BME280;66904;59.926;30.404;2023-04-29T20:51:21;101576.84;;;26.04;28.58
77739;BME280;66904;59.926;30.404;2023-04-29T20:56:22;101570.81;;;26.09;28.56
77739;BME280;66904;59.926;30.404;2023-04-29T21:01:23;101563.34;;;26.11;28.42
77739;BME280;66904;59.926;30.404;2023-04-29T21:06:26;101561.47;;;26.11;28.59
77739;BME280;66904;59.926;30.404;2023-04-29T21:11:27;101564.66;;;26.15;28.68
77739;BME280;66904;59.926;30.404;2023-04-29T21:16:27;101548.56;;;26.13;28.32
77739;BME280;66904;59.926;30.404;2023-04-29T21:21:28;101544.59;;;26.16;28.81
77739;BME280;66904;59.926;30.404;2023-04-29T21:26:30;101535.16;;;26.12;28.19
77739;BME280;66904;59.926;30.404;2023-04-29T21:31:31;101535.78;;;26.07;27.95
77739;BME280;66904;59.926;30.404;2023-04-29T21:36:32;101514.53;;;25.90;28.26
77739;BME280;66904;59.926;30.404;2023-04-29T21:41:34;101535.66;;;25.94;28.26
77739;BME280;66904;59.926;30.404;2023-04-29T21:46:38;101533.50;;;25.90;28.05
77739;BME280;66904;59.926;30.404;2023-04-29T21:51:39;101532.44;;;25.84;28.41
77739;BME280;66904;59.926;30.404;2023-04-29T21:56:40;101529.44;;;25.79;27.81
77739;BME280;66904;59.926;30.404;2023-04-29T22:01:41;101528.34;;;25.74;28.03
77739;BME280;66904;59.926;30.404;2023-04-29T22:06:44;101523.50;;;25.69;28.12
77739;BME280;66904;59.926;30.404;2023-04-29T22:11:45;101521.38;;;25.64;28.09
77739;BME280;66904;59.926;30.404;2023-04-29T22:16:45;101519.06;;;25.61;27.95
77739;BME280;66904;59.926;30.404;2023-04-29T22:21:46;101517.53;;;25.59;27.59
77739;BME280;66904;59.926;30.404;2023-04-29T22:26:46;101513.34;;;25.56;27.82
77739;BME280;66904;59.926;30.404;2023-04-29T22:31:47;101498.31;;;25.54;27.88
77739;BME280;66904;59.926;30.404;2023-04-29T22:36:47;101488.91;;;25.50;27.98
77739;BME280;66904;59.926;30.404;2023-04-29T22:41:48;101484.31;;;25.50;27.61
77739;BME280;66904;59.926;30.404;2023-04-29T22:46:49;101474.03;;;25.46;27.51
77739;BME280;66904;59.926;30.404;2023-04-29T22:51:52;101483.84;;;25.47;27.52
77739;BME280;66904;59.926;30.404;2023-04-29T22:56:56;101464.16;;;25.38;27.67
77739;BME280;66904;59.926;30.404;2023-04-29T23:01:57;101474.63;;;25.41;27.55
77739;BME280;66904;59.926;30.404;2023-04-29T23:06:57;101469.38;;;25.40;27.46
77739;BME280;66904;59.926;30.404;2023-04-29T23:11:58;101477.31;;;25.41;27.38
77739;BME280;66904;59.926;30.404;2023-04-29T23:16:58;101458.53;;;25.40;27.33
77739;BME280;66904;59.926;30.404;2023-04-29T23:21:59;101432.41;;;25.32;27.23
77739;BME280;66904;59.926;30.404;2023-04-29T23:27:00;101445.38;;;25.37;26.86
77739;BME280;66904;59.926;30.404;2023-04-29T23:32:04;101433.69;;;25.36;27.35
77739;BME280;66904;59.926;30.404;2023-04-29T23:37:04;101432.84;;;25.36;27.32
77739;BME280;66904;59.926;30.404;2023-04-29T23:42:05;101448.28;;;25.35;27.19
77739;BME280;66904;59.926;30.404;2023-04-29T23:47:06;101439.50;;;25.33;26.99
77739;BME280;66904;59.926;30.404;2023-04-29T23:52:06;101438.28;;;25.36;27.21
77739;BME280;66904;59.926;30.404;2023-04-29T23:57:09;101442.88;;;25.35;26.84
